createdAt,value
2024-04-21T00:00:33.017Z,97123.09
2024-04-21T00:03:21.910Z,97120.08
2024-04-21T00:05:51.177Z,97115.39
2024-04-21T00:08:21.638Z,97112.98
2024-04-21T00:10:50.057Z,97109.41
2024-04-21T00:13:20.540Z,97111.48
2024-04-21T00:15:50.172Z,97112.38
2024-04-21T00:18:21.403Z,97111.63
2024-04-21T00:20:51.771Z,97109.15
2024-04-21T00:23:21.512Z,97108.50
2024-04-21T00:25:59.534Z,97110.71
2024-04-21T00:28:31.110Z,97110.13
2024-04-21T00:31:00.344Z,97100.76
2024-04-21T00:33:28.682Z,97096.55
2024-04-21T00:35:56.912Z,97100.47
2024-04-21T00:38:26.826Z,97097.77
2024-04-21T00:40:54.872Z,97095.20
2024-04-21T00:43:25.729Z,97097.75
2024-04-21T00:45:54.288Z,97096.61
2024-04-21T00:48:22.997Z,97096.14
2024-04-21T00:50:54.977Z,97096.52
2024-04-21T00:53:24.755Z,97096.85
2024-04-21T00:55:56.125Z,97092.94
2024-04-21T00:58:24.942Z,97088.17
2024-04-21T01:00:53.148Z,97087.26
2024-04-21T01:03:24.461Z,97090.91
2024-04-21T01:05:56.424Z,97096.31
2024-04-21T01:08:25.087Z,97091.54
2024-04-21T01:10:53.351Z,97091.80
2024-04-21T01:13:22.930Z,97094.09
2024-04-21T01:15:53.549Z,97093.16
2024-04-21T01:18:21.911Z,97093.74
2024-04-21T01:20:50.215Z,97092.35
2024-04-21T01:23:22.476Z,97088.18
2024-04-21T01:25:50.930Z,97088.16
2024-04-21T01:28:20.044Z,97087.67
2024-04-21T01:30:48.573Z,97087.31
2024-04-21T01:33:16.886Z,97091.30
2024-04-21T01:35:45.922Z,97086.52
2024-04-21T01:38:14.087Z,97087.38
2024-04-21T01:40:42.528Z,97088.52
2024-04-21T01:43:12.781Z,97090.13
2024-04-21T01:45:46.707Z,97091.77
2024-04-21T01:48:18.414Z,97091.13
2024-04-21T01:50:49.768Z,97089.98
2024-04-21T01:53:18.174Z,97092.91
2024-04-21T01:55:46.267Z,97090.04
2024-04-21T01:58:15.141Z,97095.08
2024-04-21T02:00:43.585Z,97091.27
2024-04-21T02:03:11.961Z,97092.23
2024-04-21T02:05:40.501Z,97089.12
2024-04-21T02:08:08.428Z,97091.30
2024-04-21T02:10:38.589Z,97092.91
2024-04-21T02:13:07.539Z,97086.02
2024-04-21T02:15:36.072Z,97091.56
2024-04-21T02:18:05.635Z,97090.60
2024-04-21T02:20:35.712Z,97090.35
2024-04-21T02:23:03.893Z,97087.14
2024-04-21T02:25:32.013Z,97086.13
2024-04-21T02:28:00.241Z,97086.02
2024-04-21T02:30:28.560Z,97083.65
2024-04-21T02:32:57.961Z,97086.12
2024-04-21T02:35:26.226Z,97086.77
2024-04-21T02:37:54.223Z,97081.63
2024-04-21T02:40:28.820Z,97080.61
2024-04-21T02:42:57.057Z,97075.09
2024-04-21T02:45:25.502Z,97077.61
2024-04-21T02:47:54.573Z,97075.21
2024-04-21T02:50:23.107Z,97069.42
2024-04-21T02:52:52.536Z,97073.29
2024-04-21T02:55:22.248Z,97075.99
2024-04-21T02:57:50.402Z,97075.77
2024-04-21T03:00:20.231Z,97073.98
2024-04-21T03:02:48.927Z,97069.36
2024-04-21T03:05:17.173Z,97070.36
2024-04-21T03:07:47.010Z,97072.79
2024-04-21T03:10:15.341Z,97070.02
2024-04-21T03:12:47.080Z,97074.87
2024-04-21T03:15:15.320Z,97077.04
2024-04-21T03:17:43.860Z,97077.63
2024-04-21T03:20:12.168Z,97082.00
2024-04-21T03:22:40.405Z,97084.87
2024-04-21T03:25:11.115Z,97084.24
2024-04-21T03:27:40.579Z,97083.01
2024-04-21T03:30:09.271Z,97086.10
2024-04-21T03:32:38.648Z,97086.77
2024-04-21T03:35:09.737Z,97091.34
2024-04-21T03:37:38.150Z,97089.16
2024-04-21T03:40:07.255Z,97092.77
2024-04-21T03:42:35.902Z,97094.04
2024-04-21T03:45:07.164Z,97090.31
2024-04-21T03:47:35.462Z,97089.38
2024-04-21T03:50:05.355Z,97085.95
2024-04-21T03:52:33.528Z,97089.71
2024-04-21T03:55:04.194Z,97089.29
2024-04-21T03:57:32.374Z,97090.02
2024-04-21T04:00:01.552Z,97089.67
2024-04-21T04:02:29.808Z,97091.06
2024-04-21T04:04:59.100Z,97087.29
2024-04-21T04:07:27.801Z,97088.55
2024-04-21T04:09:58.083Z,97087.55
2024-04-21T04:12:26.740Z,97093.41
2024-04-21T04:14:56.432Z,97089.61
2024-04-21T04:17:25.032Z,97094.78
2024-04-21T04:19:54.019Z,97089.02
2024-04-21T04:22:25.969Z,97089.27
2024-04-21T04:24:56.295Z,97086.58
2024-04-21T04:27:24.502Z,97094.12
2024-04-21T04:29:55.002Z,97093.20
2024-04-21T04:32:23.134Z,97094.89
2024-04-21T04:34:52.968Z,97096.63
2024-04-21T04:37:22.592Z,97094.70
2024-04-21T04:39:53.493Z,97095.52
2024-04-21T04:42:21.669Z,97095.85
2024-04-21T04:44:49.871Z,97099.87
2024-04-21T04:47:18.271Z,97096.64
2024-04-21T04:49:46.511Z,97094.75
2024-04-21T04:52:15.102Z,97092.79
2024-04-21T04:54:45.748Z,97092.75
2024-04-21T04:57:13.933Z,97092.48
2024-04-21T04:59:42.090Z,97090.33
2024-04-21T05:02:10.262Z,97087.80
2024-04-21T05:04:38.563Z,97085.50
2024-04-21T05:07:06.836Z,97082.65
2024-04-21T05:09:35.096Z,97084.15
2024-04-21T05:12:04.822Z,97079.13
2024-04-21T05:14:33.049Z,97079.21
2024-04-21T05:17:04.181Z,97082.30
2024-04-21T05:19:32.688Z,97080.03
2024-04-21T05:22:01.702Z,97078.44
2024-04-21T05:24:30.365Z,97074.02
2024-04-21T05:27:02.116Z,97067.61
2024-04-21T05:29:30.299Z,97064.02
2024-04-21T05:31:59.276Z,97064.47
2024-04-21T05:34:30.150Z,97066.15
2024-04-21T05:37:00.660Z,97069.16
2024-04-21T05:39:28.953Z,97068.84
2024-04-21T05:41:58.770Z,97069.42
2024-04-21T05:44:27.301Z,97065.64
2024-04-21T05:46:56.395Z,97066.80
2024-04-21T05:49:25.304Z,97065.32
2024-04-21T05:51:53.842Z,97059.42
2024-04-21T05:54:22.075Z,97061.54
2024-04-21T05:56:50.957Z,97052.35
2024-04-21T05:59:21.244Z,97054.24
2024-04-21T06:01:49.493Z,97049.52
2024-04-21T06:04:18.392Z,97059.48
2024-04-21T06:06:47.331Z,97055.10
2024-04-21T06:09:16.326Z,97049.98
2024-04-21T06:11:45.942Z,97051.15
2024-04-21T06:14:14.023Z,97048.79
2024-04-21T06:16:43.425Z,97048.15
2024-04-21T06:19:12.950Z,97046.13
2024-04-21T06:21:41.106Z,97042.34
2024-04-21T06:24:09.383Z,97042.60
2024-04-21T06:26:43.090Z,97045.11
2024-04-21T06:29:15.971Z,97041.80
2024-04-21T06:31:47.483Z,97043.29
2024-04-21T06:34:15.884Z,97038.03
2024-04-21T06:36:44.303Z,97036.61
2024-04-21T06:39:13.985Z,97035.69
2024-04-21T06:41:42.106Z,97034.73
2024-04-21T06:44:10.786Z,97031.36
2024-04-21T06:46:40.430Z,97034.51
2024-04-21T06:49:09.501Z,97039.45
2024-04-21T06:51:37.823Z,97038.00
2024-04-21T06:54:06.759Z,97030.48
2024-04-21T06:56:34.994Z,97022.60
2024-04-21T06:59:03.210Z,97015.48
2024-04-21T07:01:31.488Z,97017.52
2024-04-21T07:04:03.468Z,97010.16
2024-04-21T07:06:31.618Z,97009.66
2024-04-21T07:09:01.378Z,97008.88
2024-04-21T07:11:30.444Z,97008.95
2024-04-21T07:14:10.645Z,97005.19
2024-04-21T07:16:47.238Z,96998.89
2024-04-21T07:19:15.351Z,96994.39
2024-04-21T07:21:46.008Z,96991.24
2024-04-21T07:24:14.602Z,96991.64
2024-04-21T07:26:42.832Z,96995.52
2024-04-21T07:29:11.477Z,97000.10
2024-04-21T07:31:41.100Z,97000.58
2024-04-21T07:34:11.474Z,96998.20
2024-04-21T07:36:44.150Z,97000.04
2024-04-21T07:39:13.708Z,97009.61
2024-04-21T07:41:41.917Z,97004.29
2024-04-21T07:44:10.210Z,97004.88
2024-04-21T07:46:38.317Z,97007.81
2024-04-21T07:49:09.133Z,97008.30
2024-04-21T07:51:37.179Z,97007.98
2024-04-21T07:54:07.223Z,97007.14
2024-04-21T07:56:36.808Z,97008.89
2024-04-21T07:59:06.035Z,97004.80
2024-04-21T08:01:37.220Z,97011.23
2024-04-21T08:04:05.699Z,97012.51
2024-04-21T08:06:34.075Z,97013.34
2024-04-21T08:09:11.537Z,97020.02
2024-04-21T08:11:51.694Z,97024.38
2024-04-21T08:14:20.396Z,97017.68
2024-04-21T08:16:50.121Z,97010.34
2024-04-21T08:19:20.176Z,97014.00
2024-04-21T08:21:51.082Z,97012.14
2024-04-21T08:24:22.800Z,97012.33
2024-04-21T08:26:55.219Z,97014.73
2024-04-21T08:29:24.205Z,97022.21
2024-04-21T08:31:52.498Z,97019.22
2024-04-21T08:34:23.879Z,97021.27
2024-04-21T08:36:55.317Z,97022.29
2024-04-21T08:39:23.832Z,97014.80
2024-04-21T08:42:01.133Z,97022.40
2024-04-21T08:44:32.970Z,97013.98
2024-04-21T08:47:04.083Z,97014.67
2024-04-21T08:49:32.449Z,97020.63
2024-04-21T08:52:04.249Z,97024.00
2024-04-21T08:54:33.787Z,97029.65
2024-04-21T08:57:03.227Z,97022.86
2024-04-21T08:59:33.619Z,97019.08
2024-04-21T09:02:02.981Z,97010.51
2024-04-21T09:04:36.194Z,97016.84
2024-04-21T09:07:08.005Z,97017.01
2024-04-21T09:09:36.976Z,97010.91
2024-04-21T09:12:06.885Z,97014.05
2024-04-21T09:14:49.155Z,97011.94
2024-04-21T09:17:18.260Z,97005.69
2024-04-21T09:19:48.031Z,97009.98
2024-04-21T09:22:17.455Z,97005.92
2024-04-21T09:24:49.117Z,97011.41
2024-04-21T09:27:21.236Z,97005.89
2024-04-21T09:29:51.857Z,97005.16
2024-04-21T09:32:22.926Z,97014.98
2024-04-21T09:34:52.458Z,97017.90
2024-04-21T09:37:22.091Z,97015.70
2024-04-21T09:39:51.546Z,97007.85
2024-04-21T09:42:21.981Z,97004.91
2024-04-21T09:44:50.999Z,97004.98
2024-04-21T09:47:21.620Z,97007.73
2024-04-21T09:49:52.817Z,97010.86
2024-04-21T09:52:22.304Z,97002.77
2024-04-21T09:54:51.027Z,97000.52
2024-04-21T09:57:21.979Z,96999.17
2024-04-21T10:00:01.292Z,96996.98
2024-04-21T10:02:39.006Z,96996.91
2024-04-21T10:05:11.202Z,97000.65
2024-04-21T10:07:44.610Z,96990.57
2024-04-21T10:10:19.784Z,96987.84
2024-04-21T10:12:51.209Z,96985.45
2024-04-21T10:15:22.619Z,96998.00
2024-04-21T10:17:57.907Z,96992.45
2024-04-21T10:20:38.020Z,96986.31
2024-04-21T10:23:13.471Z,96982.08
2024-04-21T10:25:45.576Z,96982.49
2024-04-21T10:28:17.966Z,96982.04
2024-04-21T10:30:49.256Z,96982.27
2024-04-21T10:33:28.138Z,96973.71
2024-04-21T10:36:00.370Z,96975.69
2024-04-21T10:38:30.786Z,96976.23
2024-04-21T10:41:04.971Z,96979.91
2024-04-21T10:43:36.371Z,96974.80
2024-04-21T10:46:05.071Z,96964.92
2024-04-21T10:48:33.638Z,96968.11
2024-04-21T10:51:02.575Z,96961.13
2024-04-21T10:53:31.037Z,96961.42
2024-04-21T10:55:59.803Z,96971.74
2024-04-21T10:58:28.081Z,96972.45
2024-04-21T11:00:56.870Z,96967.98
2024-04-21T11:03:25.573Z,96961.08
2024-04-21T11:06:04.414Z,96961.73
2024-04-21T11:08:33.378Z,96961.20
2024-04-21T11:11:04.910Z,96966.05
2024-04-21T11:13:33.086Z,96960.16
2024-04-21T11:16:04.908Z,96953.05
2024-04-21T11:18:34.044Z,96952.80
2024-04-21T11:21:02.591Z,96944.17
2024-04-21T11:23:31.623Z,96945.25
2024-04-21T11:26:03.334Z,96946.44
2024-04-21T11:28:31.475Z,96948.90
2024-04-21T11:31:07.707Z,96957.13
2024-04-21T11:33:36.977Z,96950.98
2024-04-21T11:36:11.794Z,96941.96
2024-04-21T11:38:40.191Z,96939.79
2024-04-21T11:41:08.313Z,96933.70
2024-04-21T11:43:37.624Z,96931.30
2024-04-21T11:46:07.643Z,96923.20
2024-04-21T11:48:37.832Z,96925.36
2024-04-21T11:51:06.448Z,96920.81
2024-04-21T11:53:37.604Z,96914.86
2024-04-21T11:56:09.018Z,96915.23
2024-04-21T11:58:37.423Z,96909.38
2024-04-21T12:01:06.352Z,96906.56
2024-04-21T12:03:35.301Z,96902.33
2024-04-21T12:06:05.841Z,96895.77
2024-04-21T12:08:35.060Z,96896.65
2024-04-21T12:11:07.245Z,96893.71
2024-04-21T12:13:38.474Z,96901.77
2024-04-21T12:16:07.550Z,96895.76
2024-04-21T12:18:36.130Z,96892.59
2024-04-21T12:21:05.874Z,96886.75
2024-04-21T12:23:35.250Z,96885.77
2024-04-21T12:26:04.855Z,96890.00
2024-04-21T12:28:35.065Z,96882.99
2024-04-21T12:31:03.588Z,96877.58
2024-04-21T12:33:32.076Z,96881.23
2024-04-21T12:36:01.035Z,96875.70
2024-04-21T12:38:29.565Z,96869.80
2024-04-21T12:40:58.725Z,96868.03
2024-04-21T12:43:30.266Z,96871.77
2024-04-21T12:45:58.615Z,96879.84
2024-04-21T12:48:28.001Z,96870.77
2024-04-21T12:50:56.806Z,96870.07
2024-04-21T12:53:28.015Z,96867.52
2024-04-21T12:55:56.459Z,96869.94
2024-04-21T12:58:25.059Z,96870.09
2024-04-21T13:00:54.066Z,96872.44
2024-04-21T13:03:24.451Z,96872.06
2024-04-21T13:05:52.748Z,96874.36
2024-04-21T13:08:22.207Z,96878.13
2024-04-21T13:10:52.730Z,96877.20
2024-04-21T13:13:21.525Z,96878.81
2024-04-21T13:15:51.910Z,96878.11
2024-04-21T13:18:22.478Z,96880.16
2024-04-21T13:20:52.287Z,96879.92
2024-04-21T13:23:24.643Z,96877.46
2024-04-21T13:25:54.294Z,96881.94
2024-04-21T13:28:24.218Z,96880.68
2024-04-21T13:30:52.546Z,96885.37
2024-04-21T13:33:21.772Z,96879.97
2024-04-21T13:35:49.986Z,96876.16
2024-04-21T13:38:20.464Z,96874.14
2024-04-21T13:40:49.465Z,96873.26
2024-04-21T13:43:17.588Z,96874.77
2024-04-21T13:45:46.716Z,96876.73
2024-04-21T13:48:15.852Z,96872.96
2024-04-21T13:50:45.648Z,96868.23
2024-04-21T13:53:15.253Z,96861.11
2024-04-21T13:55:43.764Z,96862.42
2024-04-21T13:58:13.067Z,96862.73
2024-04-21T14:00:43.507Z,96861.41
2024-04-21T14:03:14.904Z,96859.29
2024-04-21T14:05:44.324Z,96862.22
2024-04-21T14:08:13.878Z,96864.15
2024-04-21T14:10:42.137Z,96862.70
2024-04-21T14:13:10.251Z,96866.30
2024-04-21T14:15:38.399Z,96866.84
2024-04-21T14:18:07.399Z,96866.99
2024-04-21T14:20:36.741Z,96869.30
2024-04-21T14:23:09.084Z,96866.83
2024-04-21T14:25:38.445Z,96864.34
2024-04-21T14:28:10.841Z,96865.41
2024-04-21T14:30:39.229Z,96864.44
2024-04-21T14:33:10.411Z,96864.95
2024-04-21T14:35:39.448Z,96862.39
2024-04-21T14:38:10.016Z,96868.30
2024-04-21T14:40:38.202Z,96864.09
2024-04-21T14:43:08.005Z,96870.41
2024-04-21T14:45:43.666Z,96872.10
2024-04-21T14:48:12.212Z,96871.67
2024-04-21T14:50:41.238Z,96868.48
2024-04-21T14:53:09.516Z,96869.04
2024-04-21T14:55:45.759Z,96865.75
2024-04-21T14:58:14.007Z,96868.30
2024-04-21T15:00:44.219Z,96872.48
2024-04-21T15:03:12.856Z,96871.12
2024-04-21T15:05:42.459Z,96869.75
2024-04-21T15:08:11.764Z,96872.83
2024-04-21T15:10:40.028Z,96872.98
2024-04-21T15:13:08.835Z,96870.72
2024-04-21T15:15:40.410Z,96878.88
2024-04-21T15:18:09.047Z,96876.95
2024-04-21T15:20:41.765Z,96876.88
2024-04-21T15:23:09.911Z,96875.21
2024-04-21T15:25:38.666Z,96872.10
2024-04-21T15:28:07.054Z,96868.53
2024-04-21T15:30:36.541Z,96874.13
2024-04-21T15:33:05.806Z,96872.94
2024-04-21T15:35:34.249Z,96872.65
2024-04-21T15:38:03.042Z,96878.33
2024-04-21T15:40:31.345Z,96877.38
2024-04-21T15:43:02.923Z,96878.35
2024-04-21T15:45:33.943Z,96879.94
2024-04-21T15:48:02.292Z,96879.31
2024-04-21T15:50:32.878Z,96881.35
2024-04-21T15:53:01.476Z,96882.67
2024-04-21T15:55:30.148Z,96883.09
2024-04-21T15:57:58.415Z,96888.02
2024-04-21T16:00:32.779Z,96887.28
2024-04-21T16:03:04.703Z,96888.77
2024-04-21T16:05:33.468Z,96887.81
2024-04-21T16:08:09.668Z,96894.63
2024-04-21T16:10:38.705Z,96894.32
2024-04-21T16:13:13.025Z,96898.23
2024-04-21T16:15:41.521Z,96900.08
2024-04-21T16:18:09.694Z,96906.56
2024-04-21T16:20:38.190Z,96914.60
2024-04-21T16:23:06.727Z,96912.42
2024-04-21T16:25:36.063Z,96916.52
2024-04-21T16:28:09.091Z,96913.46
2024-04-21T16:30:38.718Z,96917.40
2024-04-21T16:33:09.244Z,96921.67
2024-04-21T16:35:37.715Z,96926.48
2024-04-21T16:38:07.947Z,96930.05
2024-04-21T16:40:38.067Z,96930.70
2024-04-21T16:43:08.554Z,96932.79
2024-04-21T16:45:38.431Z,96932.65
2024-04-21T16:48:13.061Z,96933.34
2024-04-21T16:50:46.064Z,96935.92
2024-04-21T16:53:15.060Z,96937.73
2024-04-21T16:55:45.901Z,96938.98
2024-04-21T16:58:16.588Z,96942.30
2024-04-21T17:00:45.361Z,96944.04
2024-04-21T17:03:14.391Z,96945.89
2024-04-21T17:05:48.724Z,96948.41
2024-04-21T17:08:24.286Z,96945.93
2024-04-21T17:10:52.692Z,96953.90
2024-04-21T17:13:21.589Z,96955.18
2024-04-21T17:15:50.918Z,96955.44
2024-04-21T17:18:19.032Z,96955.80
2024-04-21T17:20:48.587Z,96959.50
2024-04-21T17:23:18.500Z,96958.84
2024-04-21T17:25:47.053Z,96962.39
2024-04-21T17:28:16.657Z,96964.36
2024-04-21T17:30:45.155Z,96970.66
2024-04-21T17:33:13.387Z,96971.84
2024-04-21T17:35:41.889Z,96973.13
2024-04-21T17:38:10.492Z,96974.97
2024-04-21T17:40:38.911Z,96976.66
2024-04-21T17:43:08.351Z,96982.41
2024-04-21T17:45:37.797Z,96984.59
2024-04-21T17:48:09.280Z,96989.11
2024-04-21T17:50:38.298Z,96987.09
2024-04-21T17:53:09.028Z,96989.76
2024-04-21T17:55:40.257Z,96992.39
2024-04-21T17:58:14.502Z,96993.98
2024-04-21T18:00:42.700Z,96995.38
2024-04-21T18:03:10.994Z,96994.64
2024-04-21T18:05:39.716Z,96994.19
2024-04-21T18:08:08.243Z,96998.08
2024-04-21T18:10:37.634Z,96995.80
2024-04-21T18:13:06.345Z,96997.55
2024-04-21T18:15:34.679Z,97002.80
2024-04-21T18:18:02.998Z,97005.49
2024-04-21T18:20:31.372Z,97006.23
2024-04-21T18:22:59.753Z,97006.19
2024-04-21T18:25:28.134Z,97010.60
2024-04-21T18:27:59.693Z,97012.11
2024-04-21T18:30:29.933Z,97013.00
2024-04-21T18:32:58.242Z,97012.39
2024-04-21T18:35:29.667Z,97013.09
2024-04-21T18:37:58.626Z,97011.89
2024-04-21T18:40:31.548Z,97012.52
2024-04-21T18:43:01.157Z,97012.15
2024-04-21T18:45:30.220Z,97017.69
2024-04-21T18:47:59.554Z,97020.52
2024-04-21T18:50:27.758Z,97020.89
2024-04-21T18:52:56.296Z,97026.60
2024-04-21T18:55:25.954Z,97026.58
2024-04-21T18:58:00.244Z,97026.16
2024-04-21T19:00:28.724Z,97027.79
2024-04-21T19:03:01.432Z,97028.36
2024-04-21T19:05:39.322Z,97032.39
2024-04-21T19:08:09.718Z,97035.72
2024-04-21T19:10:40.170Z,97034.42
2024-04-21T19:13:09.488Z,97037.73
2024-04-21T19:15:38.748Z,97043.59
2024-04-21T19:18:08.161Z,97044.54
2024-04-21T19:20:40.575Z,97044.27
2024-04-21T19:23:12.217Z,97041.41
2024-04-21T19:25:41.589Z,97040.70
2024-04-21T19:28:10.354Z,97045.45
2024-04-21T19:30:39.967Z,97046.36
2024-04-21T19:33:08.068Z,97044.06
2024-04-21T19:35:37.833Z,97046.03
2024-04-21T19:38:07.250Z,97042.66
2024-04-21T19:40:35.384Z,97044.53
2024-04-21T19:43:05.256Z,97046.77
2024-04-21T19:45:34.191Z,97047.29
2024-04-21T19:48:03.770Z,97050.88
2024-04-21T19:50:33.249Z,97052.52
2024-04-21T19:53:04.271Z,97057.91
2024-04-21T19:55:33.578Z,97055.05
2024-04-21T19:58:04.504Z,97056.72
2024-04-21T20:00:36.358Z,97060.49
2024-04-21T20:03:09.618Z,97060.77
2024-04-21T20:05:43.001Z,97057.52
2024-04-21T20:08:14.366Z,97056.52
2024-04-21T20:10:45.450Z,97059.30
2024-04-21T20:13:16.146Z,97059.27
2024-04-21T20:16:13.422Z,97055.95
2024-04-21T20:18:41.918Z,97059.81
2024-04-21T20:21:10.880Z,97060.42
2024-04-21T20:23:39.495Z,97059.88
2024-04-21T20:26:13.643Z,97065.55
2024-04-21T20:28:42.849Z,97068.77
2024-04-21T20:31:15.859Z,97071.43
2024-04-21T20:33:47.820Z,97069.11
2024-04-21T20:36:24.940Z,97067.55
2024-04-21T20:38:56.716Z,97071.25
2024-04-21T20:41:28.151Z,97067.63
2024-04-21T20:43:56.323Z,97072.97
2024-04-21T20:46:25.138Z,97076.23
2024-04-21T20:48:54.455Z,97076.60
2024-04-21T20:51:22.776Z,97081.69
2024-04-21T20:53:50.753Z,97077.79
2024-04-21T20:56:18.902Z,97082.27
2024-04-21T20:58:52.526Z,97083.72
2024-04-21T21:01:22.427Z,97084.52
2024-04-21T21:03:51.097Z,97091.23
2024-04-21T21:06:20.705Z,97090.82
2024-04-21T21:08:50.403Z,97094.70
2024-04-21T21:11:19.122Z,97099.16
2024-04-21T21:13:50.071Z,97097.65
2024-04-21T21:16:19.704Z,97102.23
2024-04-21T21:18:47.945Z,97104.47
2024-04-21T21:21:17.752Z,97106.71
2024-04-21T21:23:50.134Z,97107.43
2024-04-21T21:26:20.334Z,97102.10
2024-04-21T21:28:52.076Z,97105.32
2024-04-21T21:31:21.453Z,97108.63
2024-04-21T21:33:49.605Z,97112.38
2024-04-21T21:36:18.789Z,97108.29
2024-04-21T21:38:46.960Z,97104.54
2024-04-21T21:41:15.339Z,97103.04
2024-04-21T21:43:46.480Z,97108.13
2024-04-21T21:46:15.142Z,97109.16
2024-04-21T21:48:43.367Z,97107.65
2024-04-21T21:51:11.972Z,97106.02
2024-04-21T21:53:41.021Z,97105.52
2024-04-21T21:56:10.783Z,97103.02
2024-04-21T21:58:39.277Z,97101.83
2024-04-21T22:01:07.658Z,97100.92
2024-04-21T22:03:37.904Z,97110.46
2024-04-21T22:06:07.520Z,97108.23
2024-04-21T22:08:37.931Z,97101.70
2024-04-21T22:11:07.535Z,97105.86
2024-04-21T22:13:35.873Z,97105.52
2024-04-21T22:16:05.845Z,97104.05
2024-04-21T22:18:36.176Z,97103.34
2024-04-21T22:21:08.430Z,97102.04
2024-04-21T22:23:36.821Z,97097.73
2024-04-21T22:26:05.684Z,97096.86
2024-04-21T22:28:34.983Z,97099.13
2024-04-21T22:31:06.654Z,97097.48
2024-04-21T22:33:35.268Z,97097.95
2024-04-21T22:36:06.715Z,97101.11
2024-04-21T22:38:35.601Z,97098.96
2024-04-21T22:41:06.106Z,97102.65
2024-04-21T22:43:34.465Z,97103.31
2024-04-21T22:46:07.758Z,97106.71
2024-04-21T22:48:37.619Z,97109.79
2024-04-21T22:51:06.576Z,97108.58
2024-04-21T22:53:35.051Z,97112.40
2024-04-21T22:56:04.190Z,97110.87
2024-04-21T22:58:33.477Z,97109.79
2024-04-21T23:01:08.386Z,97106.20
2024-04-21T23:03:37.097Z,97108.86
2024-04-21T23:06:07.835Z,97108.65
2024-04-21T23:08:36.106Z,97104.96
2024-04-21T23:11:04.661Z,97104.44
2024-04-21T23:13:33.297Z,97103.14
2024-04-21T23:16:05.725Z,97104.48
2024-04-21T23:18:34.530Z,97106.02
2024-04-21T23:21:02.740Z,97102.14
2024-04-21T23:23:31.202Z,97101.36
2024-04-21T23:26:01.442Z,97101.86
2024-04-21T23:28:29.674Z,97103.65
2024-04-21T23:30:59.356Z,97100.14
2024-04-21T23:33:28.045Z,97100.34
2024-04-21T23:35:58.581Z,97101.98
2024-04-21T23:38:26.750Z,97101.28
2024-04-21T23:40:56.872Z,97099.90
2024-04-21T23:43:25.861Z,97102.10
2024-04-21T23:45:54.627Z,97099.10
2024-04-21T23:48:22.962Z,97100.11
2024-04-21T23:50:51.191Z,97100.77
2024-04-21T23:53:19.231Z,97103.16
2024-04-21T23:55:48.517Z,97105.40
2024-04-21T23:58:16.968Z,97104.91
